Accueil
METAR-TAF:

METAR-TAF

Aéroports :

Base aérienne de Schaffen

Diest, Belgique

latitude: 51-00N, longitude: 005-04E, altitude: 30 m

Observation

Le bulletin a été fait il y a 22 minutes, à 15:55 UTC
Vent 9 kt de ouest/sud-ouest
Température 21°C
Humidité 56%
Pression 1010 hPa
Visibilité 10 km ou plus

METAR: EBDT 281555Z AUTO 24009KT 9999 SCT041/// BKN062/// 21/12 Q1010 BLU

Heure: 18:17 (16:17 UTC)

Prévision

Le bulletin a été fait il y a 7 heures et 36 minutes, à 08:41 UTC
Prévision valable du 28 à 10 UTC au 28 à 19 UTC
Vent 10 kt de sud-ouest
Visibilité 10 km ou plus
Quelques nuages à une hauteur de 2500 ft
Nuages épars à une hauteur de 4000 ft
Temporairement
du 28 à 10 UTC au 28 à 17 UTC
Vent 14 kt de sud-ouest avec des rafales jusqu'à 24 kt
Visibilité: 8000 m
Nuages épars à une hauteur de 1500 ft
faibles averses de pluie

TAF: EBDT 280841Z 2810/2819 22010KT 9999 FEW025 SCT040 TEMPO 2810/2817 22014G24KT 8000 -SHRA SCT015

Observations et prévisions météorologiques de plus de 4000 aéroports (messages METAR et TAF).

Les stations disponibles sont représentées par des disques jaunes et rouges sur la carte.

Passer la souris dessus pour voir le nom de la station.

Cliquer dessus pour voir les observations et prévisions météorologiques.

Pour changer de carte: cliquez sur les boutons verts avec une croix noire pour zoomer, sur le bouton vert avec un tiret pour effectuer un zoom arrière, ou sur les flèches vertes pour les cartes adjacentes.


METAR-TAF: